sensor_id;sensor_type;location;lat;lon;timestamp;P1;P2;P0
83484;PMS5003;73420;32.678;-85.380;2024-01-27T00:02:18;7;6;
83484;PMS5003;73420;32.678;-85.380;2024-01-27T00:04:43;7;7;
83484;PMS5003;73420;32.678;-85.380;2024-01-27T00:07:08;7;6;
83484;PMS5003;73420;32.678;-85.380;2024-01-27T00:09:33;7;6;
83484;PMS5003;73420;32.678;-85.380;2024-01-27T00:11:59;6;6;
83484;PMS5003;73420;32.678;-85.380;2024-01-27T00:14:24;8;7;
83484;PMS5003;73420;32.678;-85.380;2024-01-27T00:16:52;9;7;
83484;PMS5003;73420;32.678;-85.380;2024-01-27T00:19:15;9;9;
83484;PMS5003;73420;32.678;-85.380;2024-01-27T00:21:40;7;7;
83484;PMS5003;73420;32.678;-85.380;2024-01-27T00:24:06;7;7;
83484;PMS5003;73420;32.678;-85.380;2024-01-27T00:26:31;8;7;
83484;PMS5003;73420;32.678;-85.380;2024-01-27T00:28:58;7;7;
83484;PMS5003;73420;32.678;-85.380;2024-01-27T00:31:22;8;8;
83484;PMS5003;73420;32.678;-85.380;2024-01-27T00:33:47;6;6;
83484;PMS5003;73420;32.678;-85.380;2024-01-27T00:36:12;7;7;
83484;PMS5003;73420;32.678;-85.380;2024-01-27T00:38:37;6;6;
83484;PMS5003;73420;32.678;-85.380;2024-01-27T00:41:06;6;5;
83484;PMS5003;73420;32.678;-85.380;2024-01-27T00:43:28;8;8;
83484;PMS5003;73420;32.678;-85.380;2024-01-27T00:45:53;9;8;
83484;PMS5003;73420;32.678;-85.380;2024-01-27T00:48:19;7;7;
83484;PMS5003;73420;32.678;-85.380;2024-01-27T00:50:44;7;7;
83484;PMS5003;73420;32.678;-85.380;2024-01-27T00:53:14;8;7;
83484;PMS5003;73420;32.678;-85.380;2024-01-27T00:55:35;7;6;
83484;PMS5003;73420;32.678;-85.380;2024-01-27T00:58:00;8;8;
83484;PMS5003;73420;32.678;-85.380;2024-01-27T01:00:25;8;8;
83484;PMS5003;73420;32.678;-85.380;2024-01-27T01:02:51;7;7;
83484;PMS5003;73420;32.678;-85.380;2024-01-27T01:05:16;6;6;
83484;PMS5003;73420;32.678;-85.380;2024-01-27T01:07:41;8;8;
83484;PMS5003;73420;32.678;-85.380;2024-01-27T01:10:07;8;8;
83484;PMS5003;73420;32.678;-85.380;2024-01-27T01:12:32;8;8;
83484;PMS5003;73420;32.678;-85.380;2024-01-27T01:14:57;10;9;
83484;PMS5003;73420;32.678;-85.380;2024-01-27T01:17:23;9;8;
83484;PMS5003;73420;32.678;-85.380;2024-01-27T01:19:48;8;7;
83484;PMS5003;73420;32.678;-85.380;2024-01-27T01:22:13;12;12;
83484;PMS5003;73420;32.678;-85.380;2024-01-27T01:24:38;10;9;
83484;PMS5003;73420;32.678;-85.380;2024-01-27T01:27:04;9;9;
83484;PMS5003;73420;32.678;-85.380;2024-01-27T01:29:29;9;8;
83484;PMS5003;73420;32.678;-85.380;2024-01-27T01:31:54;7;7;
83484;PMS5003;73420;32.678;-85.380;2024-01-27T01:34:20;9;8;
83484;PMS5003;73420;32.678;-85.380;2024-01-27T01:36:45;9;8;
83484;PMS5003;73420;32.678;-85.380;2024-01-27T01:39:10;7;6;
83484;PMS5003;73420;32.678;-85.380;2024-01-27T01:41:36;7;7;
83484;PMS5003;73420;32.678;-85.380;2024-01-27T01:44:01;7;7;
83484;PMS5003;73420;32.678;-85.380;2024-01-27T01:46:26;9;9;
83484;PMS5003;73420;32.678;-85.380;2024-01-27T01:48:52;8;8;
83484;PMS5003;73420;32.678;-85.380;2024-01-27T01:51:17;7;7;
83484;PMS5003;73420;32.678;-85.380;2024-01-27T01:53:42;9;9;
83484;PMS5003;73420;32.678;-85.380;2024-01-27T01:56:08;9;9;
83484;PMS5003;73420;32.678;-85.380;2024-01-27T01:58:33;8;8;
83484;PMS5003;73420;32.678;-85.380;2024-01-27T02:00:58;8;8;
83484;PMS5003;73420;32.678;-85.380;2024-01-27T02:03:24;8;8;
83484;PMS5003;73420;32.678;-85.380;2024-01-27T02:05:49;8;7;
83484;PMS5003;73420;32.678;-85.380;2024-01-27T02:08:14;8;8;
83484;PMS5003;73420;32.678;-85.380;2024-01-27T02:10:39;8;8;
83484;PMS5003;73420;32.678;-85.380;2024-01-27T02:15:30;10;9;
83484;PMS5003;73420;32.678;-85.380;2024-01-27T02:17:56;9;9;
83484;PMS5003;73420;32.678;-85.380;2024-01-27T02:20:21;9;8;
83484;PMS5003;73420;32.678;-85.380;2024-01-27T02:22:46;10;10;
83484;PMS5003;73420;32.678;-85.380;2024-01-27T02:25:11;8;8;
83484;PMS5003;73420;32.678;-85.380;2024-01-27T02:27:37;8;8;
83484;PMS5003;73420;32.678;-85.380;2024-01-27T02:30:03;7;7;
83484;PMS5003;73420;32.678;-85.380;2024-01-27T02:32:27;9;8;
83484;PMS5003;73420;32.678;-85.380;2024-01-27T02:34:53;7;7;
83484;PMS5003;73420;32.678;-85.380;2024-01-27T02:37:18;8;8;
83484;PMS5003;73420;32.678;-85.380;2024-01-27T02:39:43;7;7;
83484;PMS5003;73420;32.678;-85.380;2024-01-27T02:42:11;6;6;
83484;PMS5003;73420;32.678;-85.380;2024-01-27T02:44:34;9;9;
83484;PMS5003;73420;32.678;-85.380;2024-01-27T02:46:59;10;10;
83484;PMS5003;73420;32.678;-85.380;2024-01-27T02:49:24;9;8;
83484;PMS5003;73420;32.678;-85.380;2024-01-27T02:51:50;8;8;
83484;PMS5003;73420;32.678;-85.380;2024-01-27T02:54:19;10;10;
83484;PMS5003;73420;32.678;-85.380;2024-01-27T02:56:40;11;11;
83484;PMS5003;73420;32.678;-85.380;2024-01-27T02:59:06;9;8;
83484;PMS5003;73420;32.678;-85.380;2024-01-27T03:01:31;10;9;
83484;PMS5003;73420;32.678;-85.380;2024-01-27T03:03:56;9;8;
83484;PMS5003;73420;32.678;-85.380;2024-01-27T03:06:22;9;9;
83484;PMS5003;73420;32.678;-85.380;2024-01-27T03:08:47;7;7;
83484;PMS5003;73420;32.678;-85.380;2024-01-27T03:11:12;8;8;
83484;PMS5003;73420;32.678;-85.380;2024-01-27T03:13:37;10;9;
83484;PMS5003;73420;32.678;-85.380;2024-01-27T03:16:03;7;7;
83484;PMS5003;73420;32.678;-85.380;2024-01-27T03:18:28;9;9;
83484;PMS5003;73420;32.678;-85.380;2024-01-27T03:20:53;9;9;
83484;PMS5003;73420;32.678;-85.380;2024-01-27T03:23:18;8;8;
83484;PMS5003;73420;32.678;-85.380;2024-01-27T03:25:43;8;8;
83484;PMS5003;73420;32.678;-85.380;2024-01-27T03:28:09;10;9;
83484;PMS5003;73420;32.678;-85.380;2024-01-27T03:30:36;9;8;
83484;PMS5003;73420;32.678;-85.380;2024-01-27T03:32:59;10;10;
83484;PMS5003;73420;32.678;-85.380;2024-01-27T03:35:25;10;9;
83484;PMS5003;73420;32.678;-85.380;2024-01-27T03:37:50;9;9;
83484;PMS5003;73420;32.678;-85.380;2024-01-27T03:40:15;12;12;
83484;PMS5003;73420;32.678;-85.380;2024-01-27T03:42:41;8;8;
83484;PMS5003;73420;32.678;-85.380;2024-01-27T03:45:06;8;8;
83484;PMS5003;73420;32.678;-85.380;2024-01-27T03:47:32;9;9;
83484;PMS5003;73420;32.678;-85.380;2024-01-27T03:49:57;12;11;
83484;PMS5003;73420;32.678;-85.380;2024-01-27T03:52:22;9;9;
83484;PMS5003;73420;32.678;-85.380;2024-01-27T03:54:48;10;10;
83484;PMS5003;73420;32.678;-85.380;2024-01-27T03:57:13;11;11;
83484;PMS5003;73420;32.678;-85.380;2024-01-27T03:59:40;12;10;
83484;PMS5003;73420;32.678;-85.380;2024-01-27T04:02:03;9;9;
83484;PMS5003;73420;32.678;-85.380;2024-01-27T04:04:29;7;7;
83484;PMS5003;73420;32.678;-85.380;2024-01-27T04:06:54;14;12;
83484;PMS5003;73420;32.678;-85.380;2024-01-27T04:09:19;12;11;
83484;PMS5003;73420;32.678;-85.380;2024-01-27T04:11:44;10;9;
83484;PMS5003;73420;32.678;-85.380;2024-01-27T04:14:09;10;10;
83484;PMS5003;73420;32.678;-85.380;2024-01-27T04:16:35;10;10;
83484;PMS5003;73420;32.678;-85.380;2024-01-27T04:19:00;10;10;
83484;PMS5003;73420;32.678;-85.380;2024-01-27T04:21:25;12;12;
83484;PMS5003;73420;32.678;-85.380;2024-01-27T04:23:51;9;9;
83484;PMS5003;73420;32.678;-85.380;2024-01-27T04:26:16;12;10;
83484;PMS5003;73420;32.678;-85.380;2024-01-27T04:28:41;12;12;
83484;PMS5003;73420;32.678;-85.380;2024-01-27T04:31:10;12;11;
83484;PMS5003;73420;32.678;-85.380;2024-01-27T04:33:32;11;11;
83484;PMS5003;73420;32.678;-85.380;2024-01-27T04:35:57;11;11;
83484;PMS5003;73420;32.678;-85.380;2024-01-27T04:38:23;10;9;
83484;PMS5003;73420;32.678;-85.380;2024-01-27T04:40:48;10;10;
83484;PMS5003;73420;32.678;-85.380;2024-01-27T04:43:18;9;9;
83484;PMS5003;73420;32.678;-85.380;2024-01-27T04:45:39;9;9;
83484;PMS5003;73420;32.678;-85.380;2024-01-27T04:48:04;10;9;
83484;PMS5003;73420;32.678;-85.380;2024-01-27T04:50:29;9;9;
83484;PMS5003;73420;32.678;-85.380;2024-01-27T04:52:55;14;14;
83484;PMS5003;73420;32.678;-85.380;2024-01-27T04:55:21;10;10;
83484;PMS5003;73420;32.678;-85.380;2024-01-27T04:57:46;11;10;
83484;PMS5003;73420;32.678;-85.380;2024-01-27T05:00:12;11;11;
83484;PMS5003;73420;32.678;-85.380;2024-01-27T05:02:36;11;11;
83484;PMS5003;73420;32.678;-85.380;2024-01-27T05:05:02;11;11;
83484;PMS5003;73420;32.678;-85.380;2024-01-27T05:07:29;9;9;
83484;PMS5003;73420;32.678;-85.380;2024-01-27T05:09:52;10;10;
83484;PMS5003;73420;32.678;-85.380;2024-01-27T05:12:18;11;10;
83484;PMS5003;73420;32.678;-85.380;2024-01-27T05:14:43;9;9;
83484;PMS5003;73420;32.678;-85.380;2024-01-27T05:17:08;11;11;
83484;PMS5003;73420;32.678;-85.380;2024-01-27T05:19:38;11;10;
83484;PMS5003;73420;32.678;-85.380;2024-01-27T05:21:59;13;13;
83484;PMS5003;73420;32.678;-85.380;2024-01-27T05:24:24;9;9;
83484;PMS5003;73420;32.678;-85.380;2024-01-27T05:26:50;11;11;
83484;PMS5003;73420;32.678;-85.380;2024-01-27T05:29:15;11;11;
83484;PMS5003;73420;32.678;-85.380;2024-01-27T05:31:40;11;11;
83484;PMS5003;73420;32.678;-85.380;2024-01-27T05:34:05;9;9;
83484;PMS5003;73420;32.678;-85.380;2024-01-27T05:36:31;10;10;
83484;PMS5003;73420;32.678;-85.380;2024-01-27T05:38:56;11;11;
83484;PMS5003;73420;32.678;-85.380;2024-01-27T05:41:25;10;10;
83484;PMS5003;73420;32.678;-85.380;2024-01-27T05:43:47;12;11;
83484;PMS5003;73420;32.678;-85.380;2024-01-27T05:46:12;12;12;
83484;PMS5003;73420;32.678;-85.380;2024-01-27T05:48:37;10;10;
83484;PMS5003;73420;32.678;-85.380;2024-01-27T05:51:03;12;10;
83484;PMS5003;73420;32.678;-85.380;2024-01-27T05:53:28;11;10;
83484;PMS5003;73420;32.678;-85.380;2024-01-27T05:55:55;12;12;
83484;PMS5003;73420;32.678;-85.380;2024-01-27T05:58:18;21;20;
83484;PMS5003;73420;32.678;-85.380;2024-01-27T06:00:43;38;37;
83484;PMS5003;73420;32.678;-85.380;2024-01-27T06:03:09;32;31;
83484;PMS5003;73420;32.678;-85.380;2024-01-27T06:05:34;27;27;
83484;PMS5003;73420;32.678;-85.380;2024-01-27T06:08:00;18;18;
83484;PMS5003;73420;32.678;-85.380;2024-01-27T06:10:25;15;15;
83484;PMS5003;73420;32.678;-85.380;2024-01-27T06:12:50;18;18;
83484;PMS5003;73420;32.678;-85.380;2024-01-27T06:15:15;9;9;
83484;PMS5003;73420;32.678;-85.380;2024-01-27T06:17:41;11;11;
83484;PMS5003;73420;32.678;-85.380;2024-01-27T06:20:10;13;13;
83484;PMS5003;73420;32.678;-85.380;2024-01-27T06:22:31;10;10;
83484;PMS5003;73420;32.678;-85.380;2024-01-27T06:24:57;9;9;
83484;PMS5003;73420;32.678;-85.380;2024-01-27T06:27:22;10;10;
83484;PMS5003;73420;32.678;-85.380;2024-01-27T06:29:47;13;11;
83484;PMS5003;73420;32.678;-85.380;2024-01-27T06:32:13;10;10;
83484;PMS5003;73420;32.678;-85.380;2024-01-27T06:34:38;12;12;
83484;PMS5003;73420;32.678;-85.380;2024-01-27T06:37:04;9;9;
83484;PMS5003;73420;32.678;-85.380;2024-01-27T06:39:29;12;12;
83484;PMS5003;73420;32.678;-85.380;2024-01-27T06:41:54;11;11;
83484;PMS5003;73420;32.678;-85.380;2024-01-27T06:44:22;15;14;
83484;PMS5003;73420;32.678;-85.380;2024-01-27T06:46:45;11;11;
83484;PMS5003;73420;32.678;-85.380;2024-01-27T06:49:10;14;14;
83484;PMS5003;73420;32.678;-85.380;2024-01-27T06:51:35;15;12;
83484;PMS5003;73420;32.678;-85.380;2024-01-27T06:54:01;12;11;
83484;PMS5003;73420;32.678;-85.380;2024-01-27T06:56:27;14;13;
83484;PMS5003;73420;32.678;-85.380;2024-01-27T06:58:52;11;10;
83484;PMS5003;73420;32.678;-85.380;2024-01-27T07:01:17;12;12;
83484;PMS5003;73420;32.678;-85.380;2024-01-27T07:03:42;12;12;
83484;PMS5003;73420;32.678;-85.380;2024-01-27T07:06:08;13;13;
83484;PMS5003;73420;32.678;-85.380;2024-01-27T07:08:34;13;13;
83484;PMS5003;73420;32.678;-85.380;2024-01-27T07:10:59;14;13;
83484;PMS5003;73420;32.678;-85.380;2024-01-27T07:13:24;12;11;
83484;PMS5003;73420;32.678;-85.380;2024-01-27T07:15:50;13;12;
83484;PMS5003;73420;32.678;-85.380;2024-01-27T07:18:15;16;16;
83484;PMS5003;73420;32.678;-85.380;2024-01-27T07:20:42;13;13;
83484;PMS5003;73420;32.678;-85.380;2024-01-27T07:23:05;14;14;
83484;PMS5003;73420;32.678;-85.380;2024-01-27T07:25:31;17;16;
83484;PMS5003;73420;32.678;-85.380;2024-01-27T07:27:56;12;12;
83484;PMS5003;73420;32.678;-85.380;2024-01-27T07:30:22;16;16;
83484;PMS5003;73420;32.678;-85.380;2024-01-27T07:32:51;13;13;
83484;PMS5003;73420;32.678;-85.380;2024-01-27T07:35:13;13;12;
83484;PMS5003;73420;32.678;-85.380;2024-01-27T07:37:38;15;13;
83484;PMS5003;73420;32.678;-85.380;2024-01-27T07:40:04;17;15;
83484;PMS5003;73420;32.678;-85.380;2024-01-27T07:42:29;16;16;
83484;PMS5003;73420;32.678;-85.380;2024-01-27T07:44:55;15;14;
83484;PMS5003;73420;32.678;-85.380;2024-01-27T07:47:20;15;14;
83484;PMS5003;73420;32.678;-85.380;2024-01-27T07:49:45;17;17;
83484;PMS5003;73420;32.678;-85.380;2024-01-27T07:52:11;14;14;
83484;PMS5003;73420;32.678;-85.380;2024-01-27T07:54:36;13;13;
83484;PMS5003;73420;32.678;-85.380;2024-01-27T07:57:02;13;13;
83484;PMS5003;73420;32.678;-85.380;2024-01-27T07:59:27;14;14;
83484;PMS5003;73420;32.678;-85.380;2024-01-27T08:01:52;17;17;
83484;PMS5003;73420;32.678;-85.380;2024-01-27T08:04:17;13;13;
83484;PMS5003;73420;32.678;-85.380;2024-01-27T08:06:46;18;17;
83484;PMS5003;73420;32.678;-85.380;2024-01-27T08:09:08;13;12;
83484;PMS5003;73420;32.678;-85.380;2024-01-27T08:11:33;15;15;
83484;PMS5003;73420;32.678;-85.380;2024-01-27T08:13:58;18;17;
83484;PMS5003;73420;32.678;-85.380;2024-01-27T08:16:24;14;13;
83484;PMS5003;73420;32.678;-85.380;2024-01-27T08:18:49;15;14;
83484;PMS5003;73420;32.678;-85.380;2024-01-27T08:21:15;15;14;
83484;PMS5003;73420;32.678;-85.380;2024-01-27T08:23:40;15;15;
83484;PMS5003;73420;32.678;-85.380;2024-01-27T08:26:05;12;12;
83484;PMS5003;73420;32.678;-85.380;2024-01-27T08:28:30;14;14;
83484;PMS5003;73420;32.678;-85.380;2024-01-27T08:30:56;18;16;
83484;PMS5003;73420;32.678;-85.380;2024-01-27T08:33:21;34;33;
83484;PMS5003;73420;32.678;-85.380;2024-01-27T08:35:47;30;29;
83484;PMS5003;73420;32.678;-85.380;2024-01-27T08:38:12;26;26;
83484;PMS5003;73420;32.678;-85.380;2024-01-27T08:40:38;31;29;
83484;PMS5003;73420;32.678;-85.380;2024-01-27T08:43:03;34;34;
83484;PMS5003;73420;32.678;-85.380;2024-01-27T08:45:31;42;41;
83484;PMS5003;73420;32.678;-85.380;2024-01-27T08:47:54;45;45;
83484;PMS5003;73420;32.678;-85.380;2024-01-27T08:50:20;54;54;
83484;PMS5003;73420;32.678;-85.380;2024-01-27T08:52:45;55;54;
83484;PMS5003;73420;32.678;-85.380;2024-01-27T08:55:10;37;37;
83484;PMS5003;73420;32.678;-85.380;2024-01-27T08:57:35;26;25;
83484;PMS5003;73420;32.678;-85.380;2024-01-27T09:00:00;22;22;
83484;PMS5003;73420;32.678;-85.380;2024-01-27T09:02:25;29;28;
83484;PMS5003;73420;32.678;-85.380;2024-01-27T09:04:51;38;37;
83484;PMS5003;73420;32.678;-85.380;2024-01-27T09:07:16;40;38;
83484;PMS5003;73420;32.678;-85.380;2024-01-27T09:09:42;30;30;
83484;PMS5003;73420;32.678;-85.380;2024-01-27T09:12:07;22;22;
83484;PMS5003;73420;32.678;-85.380;2024-01-27T09:14:32;15;15;
83484;PMS5003;73420;32.678;-85.380;2024-01-27T09:16:57;17;17;
83484;PMS5003;73420;32.678;-85.380;2024-01-27T09:19:23;14;13;
83484;PMS5003;73420;32.678;-85.380;2024-01-27T09:21:49;18;15;
83484;PMS5003;73420;32.678;-85.380;2024-01-27T09:24:14;12;11;
83484;PMS5003;73420;32.678;-85.380;2024-01-27T09:26:39;14;14;
83484;PMS5003;73420;32.678;-85.380;2024-01-27T09:29:04;13;12;
83484;PMS5003;73420;32.678;-85.380;2024-01-27T09:31:30;14;14;
83484;PMS5003;73420;32.678;-85.380;2024-01-27T09:33:56;15;14;
83484;PMS5003;73420;32.678;-85.380;2024-01-27T09:36:20;16;16;
83484;PMS5003;73420;32.678;-85.380;2024-01-27T09:38:46;21;21;
83484;PMS5003;73420;32.678;-85.380;2024-01-27T09:41:12;15;15;
83484;PMS5003;73420;32.678;-85.380;2024-01-27T09:43:36;15;14;
83484;PMS5003;73420;32.678;-85.380;2024-01-27T09:46:06;14;14;
83484;PMS5003;73420;32.678;-85.380;2024-01-27T09:48:27;16;15;
83484;PMS5003;73420;32.678;-85.380;2024-01-27T09:50:52;19;18;
83484;PMS5003;73420;32.678;-85.380;2024-01-27T09:53:17;20;20;
83484;PMS5003;73420;32.678;-85.380;2024-01-27T09:55:43;12;12;
83484;PMS5003;73420;32.678;-85.380;2024-01-27T09:58:08;13;12;
83484;PMS5003;73420;32.678;-85.380;2024-01-27T10:00:33;12;12;
83484;PMS5003;73420;32.678;-85.380;2024-01-27T10:02:58;12;12;
83484;PMS5003;73420;32.678;-85.380;2024-01-27T10:05:23;12;12;
83484;PMS5003;73420;32.678;-85.380;2024-01-27T10:07:49;15;15;
83484;PMS5003;73420;32.678;-85.380;2024-01-27T10:10:15;18;17;
83484;PMS5003;73420;32.678;-85.380;2024-01-27T10:12:40;24;24;
83484;PMS5003;73420;32.678;-85.380;2024-01-27T10:15:06;49;49;
83484;PMS5003;73420;32.678;-85.380;2024-01-27T10:17:31;67;67;
83484;PMS5003;73420;32.678;-85.380;2024-01-27T10:20:00;81;81;
83484;PMS5003;73420;32.678;-85.380;2024-01-27T10:22:23;70;65;
83484;PMS5003;73420;32.678;-85.380;2024-01-27T10:24:48;72;72;
83484;PMS5003;73420;32.678;-85.380;2024-01-27T10:27:13;78;76;
83484;PMS5003;73420;32.678;-85.380;2024-01-27T10:29:39;74;74;
83484;PMS5003;73420;32.678;-85.380;2024-01-27T10:32:08;71;71;
83484;PMS5003;73420;32.678;-85.380;2024-01-27T10:34:30;64;63;
83484;PMS5003;73420;32.678;-85.380;2024-01-27T10:36:55;56;54;
83484;PMS5003;73420;32.678;-85.380;2024-01-27T10:39:21;53;52;
83484;PMS5003;73420;32.678;-85.380;2024-01-27T10:41:46;50;48;
83484;PMS5003;73420;32.678;-85.380;2024-01-27T10:44:13;48;48;
83484;PMS5003;73420;32.678;-85.380;2024-01-27T10:46:40;46;44;
83484;PMS5003;73420;32.678;-85.380;2024-01-27T10:49:02;36;36;
83484;PMS5003;73420;32.678;-85.380;2024-01-27T10:51:29;62;62;
83484;PMS5003;73420;32.678;-85.380;2024-01-27T10:53:53;49;48;
83484;PMS5003;73420;32.678;-85.380;2024-01-27T10:56:19;29;29;
83484;PMS5003;73420;32.678;-85.380;2024-01-27T10:58:44;23;23;
83484;PMS5003;73420;32.678;-85.380;2024-01-27T11:01:09;16;15;
83484;PMS5003;73420;32.678;-85.380;2024-01-27T11:03:34;16;16;
83484;PMS5003;73420;32.678;-85.380;2024-01-27T11:06:00;14;14;
83484;PMS5003;73420;32.678;-85.380;2024-01-27T11:08:25;14;14;
83484;PMS5003;73420;32.678;-85.380;2024-01-27T11:10:54;12;12;
83484;PMS5003;73420;32.678;-85.380;2024-01-27T11:13:16;12;12;
83484;PMS5003;73420;32.678;-85.380;2024-01-27T11:18:06;12;12;
83484;PMS5003;73420;32.678;-85.380;2024-01-27T11:20:32;11;11;
83484;PMS5003;73420;32.678;-85.380;2024-01-27T11:25:22;13;13;
83484;PMS5003;73420;32.678;-85.380;2024-01-27T11:27:48;16;15;
83484;PMS5003;73420;32.678;-85.380;2024-01-27T11:32:38;12;11;
83484;PMS5003;73420;32.678;-85.380;2024-01-27T11:35:04;14;14;
83484;PMS5003;73420;32.678;-85.380;2024-01-27T11:37:30;13;12;
83484;PMS5003;73420;32.678;-85.380;2024-01-27T11:42:20;11;11;
83484;PMS5003;73420;32.678;-85.380;2024-01-27T11:44:45;15;13;
83484;PMS5003;73420;32.678;-85.380;2024-01-27T11:47:16;14;14;
83484;PMS5003;73420;32.678;-85.380;2024-01-27T11:49:35;12;12;
83484;PMS5003;73420;32.678;-85.380;2024-01-27T11:52:01;13;13;
83484;PMS5003;73420;32.678;-85.380;2024-01-27T11:54:26;14;14;
83484;PMS5003;73420;32.678;-85.380;2024-01-27T11:56:52;15;15;
83484;PMS5003;73420;32.678;-85.380;2024-01-27T11:59:17;14;14;
83484;PMS5003;73420;32.678;-85.380;2024-01-27T12:01:42;16;15;
83484;PMS5003;73420;32.678;-85.380;2024-01-27T12:04:08;12;12;
83484;PMS5003;73420;32.678;-85.380;2024-01-27T12:06:33;15;15;
83484;PMS5003;73420;32.678;-85.380;2024-01-27T12:08:58;15;14;
83484;PMS5003;73420;32.678;-85.380;2024-01-27T12:11:24;13;13;
83484;PMS5003;73420;32.678;-85.380;2024-01-27T12:13:48;12;11;
83484;PMS5003;73420;32.678;-85.380;2024-01-27T12:16:14;16;15;
83484;PMS5003;73420;32.678;-85.380;2024-01-27T12:18:39;14;14;
83484;PMS5003;73420;32.678;-85.380;2024-01-27T12:21:04;15;14;
83484;PMS5003;73420;32.678;-85.380;2024-01-27T12:23:29;15;14;
83484;PMS5003;73420;32.678;-85.380;2024-01-27T12:25:55;17;17;
83484;PMS5003;73420;32.678;-85.380;2024-01-27T12:28:22;16;16;
83484;PMS5003;73420;32.678;-85.380;2024-01-27T12:30:46;12;12;
83484;PMS5003;73420;32.678;-85.380;2024-01-27T12:33:11;13;13;
83484;PMS5003;73420;32.678;-85.380;2024-01-27T12:35:37;14;13;
83484;PMS5003;73420;32.678;-85.380;2024-01-27T12:38:02;13;13;
83484;PMS5003;73420;32.678;-85.380;2024-01-27T12:40:27;14;14;
83484;PMS5003;73420;32.678;-85.380;2024-01-27T12:42:53;12;12;
83484;PMS5003;73420;32.678;-85.380;2024-01-27T12:45:18;11;11;
83484;PMS5003;73420;32.678;-85.380;2024-01-27T12:47:48;14;13;
83484;PMS5003;73420;32.678;-85.380;2024-01-27T12:50:09;15;15;
83484;PMS5003;73420;32.678;-85.380;2024-01-27T12:52:34;15;15;
83484;PMS5003;73420;32.678;-85.380;2024-01-27T12:54:59;14;14;
83484;PMS5003;73420;32.678;-85.380;2024-01-27T12:57:24;15;15;
83484;PMS5003;73420;32.678;-85.380;2024-01-27T12:59:51;15;14;
83484;PMS5003;73420;32.678;-85.380;2024-01-27T13:02:15;17;17;
83484;PMS5003;73420;32.678;-85.380;2024-01-27T13:04:41;14;14;
83484;PMS5003;73420;32.678;-85.380;2024-01-27T13:07:06;16;16;
83484;PMS5003;73420;32.678;-85.380;2024-01-27T13:09:32;13;13;
83484;PMS5003;73420;32.678;-85.380;2024-01-27T13:11:58;13;13;
83484;PMS5003;73420;32.678;-85.380;2024-01-27T13:14:23;12;11;
83484;PMS5003;73420;32.678;-85.380;2024-01-27T13:16:48;14;14;
83484;PMS5003;73420;32.678;-85.380;2024-01-27T13:19:14;13;12;
83484;PMS5003;73420;32.678;-85.380;2024-01-27T13:21:39;13;12;
83484;PMS5003;73420;32.678;-85.380;2024-01-27T13:24:08;17;16;
83484;PMS5003;73420;32.678;-85.380;2024-01-27T13:26:30;13;12;
83484;PMS5003;73420;32.678;-85.380;2024-01-27T13:28:55;13;13;
83484;PMS5003;73420;32.678;-85.380;2024-01-27T13:31:20;14;13;
83484;PMS5003;73420;32.678;-85.380;2024-01-27T13:33:46;12;12;
83484;PMS5003;73420;32.678;-85.380;2024-01-27T13:36:11;13;12;
83484;PMS5003;73420;32.678;-85.380;2024-01-27T13:38:37;12;10;
83484;PMS5003;73420;32.678;-85.380;2024-01-27T13:41:02;11;11;
83484;PMS5003;73420;32.678;-85.380;2024-01-27T13:43:27;12;11;
83484;PMS5003;73420;32.678;-85.380;2024-01-27T13:45:53;11;11;
83484;PMS5003;73420;32.678;-85.380;2024-01-27T13:48:18;11;11;
83484;PMS5003;73420;32.678;-85.380;2024-01-27T13:50:43;14;14;
83484;PMS5003;73420;32.678;-85.380;2024-01-27T13:53:08;15;14;
83484;PMS5003;73420;32.678;-85.380;2024-01-27T13:55:34;13;13;
83484;PMS5003;73420;32.678;-85.380;2024-01-27T13:57:59;11;11;
83484;PMS5003;73420;32.678;-85.380;2024-01-27T14:00:25;10;10;
83484;PMS5003;73420;32.678;-85.380;2024-01-27T14:02:50;10;10;
83484;PMS5003;73420;32.678;-85.380;2024-01-27T14:05:15;14;13;
83484;PMS5003;73420;32.678;-85.380;2024-01-27T14:07:40;13;13;
83484;PMS5003;73420;32.678;-85.380;2024-01-27T14:10:05;13;12;
83484;PMS5003;73420;32.678;-85.380;2024-01-27T14:12:31;15;15;
83484;PMS5003;73420;32.678;-85.380;2024-01-27T14:17:21;15;14;
83484;PMS5003;73420;32.678;-85.380;2024-01-27T14:19:47;15;14;
83484;PMS5003;73420;32.678;-85.380;2024-01-27T14:22:12;16;16;
83484;PMS5003;73420;32.678;-85.380;2024-01-27T14:24:39;16;16;
83484;PMS5003;73420;32.678;-85.380;2024-01-27T14:27:03;14;14;
83484;PMS5003;73420;32.678;-85.380;2024-01-27T14:29:28;17;17;
83484;PMS5003;73420;32.678;-85.380;2024-01-27T14:31:53;17;17;
83484;PMS5003;73420;32.678;-85.380;2024-01-27T14:34:19;16;15;
83484;PMS5003;73420;32.678;-85.380;2024-01-27T14:36:49;14;13;
83484;PMS5003;73420;32.678;-85.380;2024-01-27T14:39:09;19;18;
83484;PMS5003;73420;32.678;-85.380;2024-01-27T14:41:35;14;13;
83484;PMS5003;73420;32.678;-85.380;2024-01-27T14:44:00;15;13;
83484;PMS5003;73420;32.678;-85.380;2024-01-27T14:46:25;13;13;
83484;PMS5003;73420;32.678;-85.380;2024-01-27T14:48:55;16;16;
83484;PMS5003;73420;32.678;-85.380;2024-01-27T14:51:15;12;12;
83484;PMS5003;73420;32.678;-85.380;2024-01-27T14:53:41;13;13;
83484;PMS5003;73420;32.678;-85.380;2024-01-27T14:56:06;10;10;
83484;PMS5003;73420;32.678;-85.380;2024-01-27T14:58:31;10;10;
83484;PMS5003;73420;32.678;-85.380;2024-01-27T15:00:56;11;11;
83484;PMS5003;73420;32.678;-85.380;2024-01-27T15:03:22;11;11;
83484;PMS5003;73420;32.678;-85.380;2024-01-27T15:05:47;10;10;
83484;PMS5003;73420;32.678;-85.380;2024-01-27T15:08:12;15;11;
83484;PMS5003;73420;32.678;-85.380;2024-01-27T15:10:38;22;22;
83484;PMS5003;73420;32.678;-85.380;2024-01-27T15:13:04;10;10;
83484;PMS5003;73420;32.678;-85.380;2024-01-27T15:15:28;8;8;
83484;PMS5003;73420;32.678;-85.380;2024-01-27T15:17:54;8;8;
83484;PMS5003;73420;32.678;-85.380;2024-01-27T15:20:19;8;8;
83484;PMS5003;73420;32.678;-85.380;2024-01-27T15:22:44;9;9;
83484;PMS5003;73420;32.678;-85.380;2024-01-27T15:25:10;8;8;
83484;PMS5003;73420;32.678;-85.380;2024-01-27T15:27:35;6;6;
83484;PMS5003;73420;32.678;-85.380;2024-01-27T15:30:00;9;8;
83484;PMS5003;73420;32.678;-85.380;2024-01-27T15:32:26;9;8;
83484;PMS5003;73420;32.678;-85.380;2024-01-27T15:34:51;8;7;
83484;PMS5003;73420;32.678;-85.380;2024-01-27T15:37:17;7;7;
83484;PMS5003;73420;32.678;-85.380;2024-01-27T15:39:42;7;7;
83484;PMS5003;73420;32.678;-85.380;2024-01-27T15:42:07;9;9;
83484;PMS5003;73420;32.678;-85.380;2024-01-27T15:44:32;7;6;
83484;PMS5003;73420;32.678;-85.380;2024-01-27T15:46:58;6;6;
83484;PMS5003;73420;32.678;-85.380;2024-01-27T15:49:23;7;7;
83484;PMS5003;73420;32.678;-85.380;2024-01-27T15:51:48;5;5;
83484;PMS5003;73420;32.678;-85.380;2024-01-27T15:54:14;7;7;
83484;PMS5003;73420;32.678;-85.380;2024-01-27T15:56:39;6;5;